Time;durP1;ratioP1;P1;durP2;ratioP2;P2;SDS_P1;SDS_P2;PMS_P1;PMS_P2;Temp;Humidity;BMP_temperature;BMP_pressure;BME280_temperature;BME280_humidity;BME280_pressure;Samples;Min_cycle;Max_cycle;Signal;HPM_P1;HPM_P2
2023/05/07 00:01:25;;;;;;;9.33;5.87;;;10.90;99.90;;;;;;4207219;28;20239;-75
2023/05/07 00:03:28;;;;;;;8.33;5.63;;;10.90;99.90;;;;;;4206628;28;20231;-74
2023/05/07 00:05:30;;;;;;;9.00;5.77;;;10.80;99.90;;;;;;4204288;28;20220;-75
2023/05/07 00:07:32;;;;;;;7.33;5.23;;;10.80;99.90;;;;;;4203508;28;20220;-75
2023/05/07 00:09:34;;;;;;;8.23;5.23;;;10.80;99.90;;;;;;4210527;28;20310;-74
2023/05/07 00:11:38;;;;;;;9.90;5.90;;;10.80;99.90;;;;;;4208991;28;20208;-75
2023/05/07 00:13:40;;;;;;;10.20;5.63;;;10.80;99.90;;;;;;4204402;28;20319;-75
2023/05/07 00:15:44;;;;;;;9.93;5.50;;;10.70;99.90;;;;;;4206060;28;20216;-75
2023/05/07 00:17:45;;;;;;;9.00;6.00;;;10.70;99.90;;;;;;4212311;28;20334;-76
2023/05/07 00:19:47;;;;;;;10.07;5.67;;;10.70;99.90;;;;;;4205792;28;20215;-75
2023/05/07 00:21:49;;;;;;;9.03;5.83;;;10.70;99.90;;;;;;4205217;28;20240;-75
2023/05/07 00:23:51;;;;;;;7.70;5.17;;;10.60;99.90;;;;;;4205365;28;20314;-75
2023/05/07 00:25:53;;;;;;;9.20;5.97;;;10.60;99.90;;;;;;4207332;28;20220;-75
2023/05/07 00:27:55;;;;;;;12.63;6.10;;;10.60;99.90;;;;;;4208318;28;20338;-75
2023/05/07 00:29:56;;;;;;;8.47;5.53;;;10.60;99.90;;;;;;4209319;28;20216;-75
2023/05/07 00:31:59;;;;;;;9.03;5.50;;;10.60;99.90;;;;;;4207288;28;20365;-75
2023/05/07 00:34:01;;;;;;;8.27;5.37;;;10.60;99.90;;;;;;4204374;28;20235;-75
2023/05/07 00:36:03;;;;;;;10.60;6.20;;;10.60;99.90;;;;;;4204459;28;20207;-75
2023/05/07 00:38:05;;;;;;;9.60;6.03;;;10.50;99.90;;;;;;4210891;28;21158;-75
2023/05/07 00:40:08;;;;;;;8.90;5.90;;;10.50;99.90;;;;;;4206318;28;20212;-74
2023/05/07 00:42:10;;;;;;;9.00;6.07;;;10.50;99.90;;;;;;4207463;28;20298;-75
2023/05/07 00:44:12;;;;;;;8.10;5.73;;;10.50;99.90;;;;;;4204297;28;20741;-76
2023/05/07 00:46:15;;;;;;;11.57;5.90;;;10.50;99.90;;;;;;4206294;28;20216;-74
2023/05/07 00:48:19;;;;;;;9.57;6.20;;;10.50;99.90;;;;;;4208082;28;20976;-75
2023/05/07 00:50:22;;;;;;;9.83;6.10;;;10.50;99.90;;;;;;4206947;28;20316;-75
2023/05/07 00:52:26;;;;;;;9.90;6.07;;;10.40;99.90;;;;;;4206920;28;20211;-74
2023/05/07 00:54:28;;;;;;;8.97;5.57;;;10.40;99.90;;;;;;4207853;28;20928;-75
2023/05/07 00:56:30;;;;;;;9.80;5.93;;;10.40;99.90;;;;;;4208696;28;20966;-74
2023/05/07 00:58:33;;;;;;;10.33;5.97;;;10.30;99.90;;;;;;4205548;28;20252;-75
2023/05/07 01:00:35;;;;;;;7.83;5.40;;;10.40;99.90;;;;;;4205585;28;20725;-75
2023/05/07 01:02:37;;;;;;;10.33;5.73;;;10.40;99.90;;;;;;4208634;28;20213;-74
2023/05/07 01:04:40;;;;;;;9.83;5.97;;;10.40;99.90;;;;;;4206197;28;20668;-75
2023/05/07 01:06:43;;;;;;;8.33;5.60;;;10.40;99.90;;;;;;4209726;28;20608;-74
2023/05/07 01:08:45;;;;;;;8.20;5.53;;;10.40;99.90;;;;;;4211945;28;20238;-74
2023/05/07 01:10:47;;;;;;;9.87;5.80;;;10.40;99.90;;;;;;4209704;28;20309;-75
2023/05/07 01:12:50;;;;;;;9.37;6.43;;;10.40;99.90;;;;;;4207945;28;20240;-75
2023/05/07 01:14:52;;;;;;;9.87;6.37;;;10.30;99.90;;;;;;4205927;28;20326;-76
2023/05/07 01:16:55;;;;;;;11.37;6.50;;;10.40;99.90;;;;;;4209842;28;20315;-74
2023/05/07 01:18:56;;;;;;;11.33;7.17;;;10.40;99.90;;;;;;4213846;28;20215;-76
2023/05/07 01:21:02;;;;;;;9.00;6.00;;;10.30;99.90;;;;;;4208250;28;20220;-75
2023/05/07 01:23:08;;;;;;;10.43;6.77;;;10.30;99.90;;;;;;4206194;28;20313;-75
2023/05/07 01:25:10;;;;;;;11.63;7.40;;;10.30;99.90;;;;;;4210094;28;20673;-75
2023/05/07 01:27:11;;;;;;;12.17;6.60;;;10.30;99.90;;;;;;4207544;28;20212;-75
2023/05/07 01:29:13;;;;;;;9.10;6.07;;;10.30;99.90;;;;;;4208820;28;20232;-75
2023/05/07 01:31:17;;;;;;;9.37;6.63;;;10.30;99.90;;;;;;4206363;28;20743;-75
2023/05/07 01:33:22;;;;;;;11.97;6.90;;;10.30;99.90;;;;;;4210716;28;20219;-74
2023/05/07 01:35:27;;;;;;;11.07;6.93;;;10.30;99.90;;;;;;4209079;28;21078;-76
2023/05/07 01:37:30;;;;;;;11.43;6.80;;;10.30;99.90;;;;;;4214628;28;20214;-75
2023/05/07 01:39:34;;;;;;;10.87;6.80;;;10.30;99.90;;;;;;4212221;28;20218;-75
2023/05/07 01:41:36;;;;;;;11.90;6.93;;;10.30;99.90;;;;;;4208432;28;20222;-75
2023/05/07 01:43:38;;;;;;;10.97;6.73;;;10.20;99.90;;;;;;4205838;28;20233;-75
2023/05/07 01:45:41;;;;;;;11.57;7.43;;;10.20;99.90;;;;;;4212054;28;20249;-76
2023/05/07 01:47:43;;;;;;;10.93;7.27;;;10.20;99.90;;;;;;4207046;28;20221;-75
2023/05/07 01:49:45;;;;;;;11.17;7.50;;;10.30;99.90;;;;;;4207438;28;20227;-75
2023/05/07 01:51:47;;;;;;;12.37;7.50;;;10.20;99.90;;;;;;4210135;28;20242;-75
2023/05/07 01:53:50;;;;;;;11.83;8.03;;;10.20;99.90;;;;;;4204827;28;20228;-75
2023/05/07 01:55:54;;;;;;;12.27;8.23;;;10.20;99.90;;;;;;4207446;28;20219;-76
2023/05/07 01:57:55;;;;;;;13.63;8.60;;;10.20;99.90;;;;;;4212201;28;20634;-75
2023/05/07 01:59:57;;;;;;;13.33;8.97;;;10.20;99.90;;;;;;4212631;28;20218;-75
2023/05/07 02:02:00;;;;;;;14.90;9.57;;;10.20;99.90;;;;;;4210168;28;20310;-75
2023/05/07 02:04:02;;;;;;;14.03;8.60;;;10.10;99.90;;;;;;4210741;28;20725;-75
2023/05/07 02:06:04;;;;;;;17.20;9.70;;;10.10;99.90;;;;;;4206987;28;20681;-75
2023/05/07 02:08:06;;;;;;;14.63;9.17;;;10.10;99.90;;;;;;4209422;28;20645;-75
2023/05/07 02:10:08;;;;;;;15.37;9.47;;;10.10;99.90;;;;;;4211537;28;20211;-75
2023/05/07 02:12:12;;;;;;;14.57;9.50;;;10.10;99.90;;;;;;4210019;28;20215;-75
2023/05/07 02:14:13;;;;;;;14.23;9.20;;;10.10;99.90;;;;;;4208437;28;20274;-74
2023/05/07 02:16:16;;;;;;;13.97;9.53;;;10.00;99.90;;;;;;4209595;28;20221;-74
2023/05/07 02:18:18;;;;;;;14.07;9.43;;;10.10;99.90;;;;;;4213950;28;20591;-75
2023/05/07 02:20:20;;;;;;;14.00;9.03;;;10.10;99.90;;;;;;4207526;28;20301;-75
2023/05/07 02:22:21;;;;;;;14.23;9.63;;;10.10;99.90;;;;;;4206690;28;20297;-76
2023/05/07 02:24:23;;;;;;;14.83;9.93;;;10.00;99.90;;;;;;4212286;28;20300;-75
2023/05/07 02:26:25;;;;;;;15.53;9.40;;;10.00;99.90;;;;;;4213291;28;20245;-76
2023/05/07 02:28:29;;;;;;;14.47;9.70;;;10.00;99.90;;;;;;4209423;28;20249;-74
2023/05/07 02:30:30;;;;;;;14.93;9.33;;;10.00;99.90;;;;;;4208030;28;20223;-74
2023/05/07 02:32:32;;;;;;;15.97;10.13;;;10.00;99.90;;;;;;4207296;28;20241;-75
2023/05/07 02:34:34;;;;;;;13.73;9.13;;;10.00;99.90;;;;;;4206889;28;20250;-74
2023/05/07 02:36:36;;;;;;;15.40;9.80;;;10.00;99.90;;;;;;4211111;28;20589;-75
2023/05/07 02:38:38;;;;;;;15.90;9.40;;;10.00;99.90;;;;;;4209607;28;20724;-75
2023/05/07 02:40:40;;;;;;;17.30;9.57;;;10.00;99.90;;;;;;4207620;28;20210;-75
2023/05/07 02:42:42;;;;;;;14.03;8.90;;;10.00;99.90;;;;;;4207308;28;20310;-75
2023/05/07 02:44:45;;;;;;;14.13;9.33;;;9.90;99.90;;;;;;4205145;28;20238;-75
2023/05/07 02:46:47;;;;;;;14.60;9.53;;;10.00;99.90;;;;;;4206415;28;20739;-75
2023/05/07 02:48:49;;;;;;;13.13;8.70;;;10.00;99.90;;;;;;4207153;28;20565;-75
2023/05/07 02:50:51;;;;;;;12.87;8.83;;;9.90;99.90;;;;;;4205581;28;20211;-74
2023/05/07 02:52:53;;;;;;;12.63;8.47;;;9.90;99.90;;;;;;4207090;28;20697;-75
2023/05/07 02:54:54;;;;;;;13.63;9.43;;;10.00;99.90;;;;;;4206523;28;20696;-75
2023/05/07 02:56:56;;;;;;;14.73;9.33;;;9.90;99.90;;;;;;4208799;28;20293;-74
2023/05/07 02:58:58;;;;;;;14.03;8.40;;;9.90;99.90;;;;;;4209993;28;20216;-75
2023/05/07 03:01:02;;;;;;;14.27;8.33;;;9.90;99.90;;;;;;4210653;28;20582;-74
2023/05/07 03:03:04;;;;;;;12.67;8.53;;;9.90;99.90;;;;;;4208398;28;20218;-75
2023/05/07 03:05:07;;;;;;;14.83;9.30;;;9.90;99.90;;;;;;4207961;28;20587;-75
2023/05/07 03:07:08;;;;;;;12.57;8.53;;;9.90;99.90;;;;;;4209949;28;20302;-74
2023/05/07 03:09:10;;;;;;;12.93;8.97;;;9.90;99.90;;;;;;4210241;28;20678;-74
2023/05/07 03:11:12;;;;;;;13.73;8.93;;;9.90;99.90;;;;;;4204946;28;20215;-74
2023/05/07 03:13:15;;;;;;;13.50;9.07;;;9.90;99.90;;;;;;4203610;28;20203;-74
2023/05/07 03:15:17;;;;;;;14.33;9.17;;;9.90;99.90;;;;;;4206036;28;20673;-75
2023/05/07 03:17:21;;;;;;;12.70;8.63;;;9.90;99.90;;;;;;4208632;28;20664;-75
2023/05/07 03:19:23;;;;;;;15.30;8.87;;;9.90;99.90;;;;;;4206529;28;20305;-74
2023/05/07 03:21:26;;;;;;;14.97;9.67;;;9.90;99.90;;;;;;4203014;28;20245;-74
2023/05/07 03:23:28;;;;;;;13.07;9.47;;;9.90;99.90;;;;;;4206432;28;20904;-74
2023/05/07 03:25:30;;;;;;;15.50;9.27;;;9.90;99.90;;;;;;4208758;28;20215;-75
2023/05/07 03:27:32;;;;;;;14.57;9.67;;;9.90;99.90;;;;;;4205434;28;20235;-75
2023/05/07 03:29:34;;;;;;;14.07;9.20;;;9.90;99.90;;;;;;4205412;28;20895;-74
2023/05/07 03:31:36;;;;;;;14.37;8.93;;;9.90;99.90;;;;;;4206135;28;20301;-74
2023/05/07 03:33:50;;;;;;;15.10;9.53;;;9.90;99.90;;;;;;4208016;28;20217;-75
2023/05/07 03:35:52;;;;;;;12.73;9.00;;;9.90;99.90;;;;;;4204562;28;20731;-74
2023/05/07 03:37:54;;;;;;;12.90;8.60;;;9.90;99.90;;;;;;4208617;28;20218;-74
2023/05/07 03:39:56;;;;;;;13.00;8.83;;;9.90;99.90;;;;;;4206337;28;20305;-74
2023/05/07 03:41:58;;;;;;;14.13;8.80;;;9.80;99.90;;;;;;4205869;28;20261;-75
2023/05/07 03:44:00;;;;;;;13.77;9.33;;;9.80;99.90;;;;;;4212804;28;20285;-75
2023/05/07 03:46:02;;;;;;;14.70;9.40;;;9.80;99.90;;;;;;4204777;28;20294;-75
2023/05/07 03:48:05;;;;;;;12.33;9.13;;;9.80;99.90;;;;;;4207701;28;20214;-75
2023/05/07 03:50:11;;;;;;;14.03;9.13;;;9.80;99.90;;;;;;4209728;28;20224;-74
2023/05/07 03:52:13;;;;;;;13.73;9.57;;;9.80;99.90;;;;;;4209112;28;20214;-74
2023/05/07 03:54:15;;;;;;;13.67;9.00;;;9.80;99.90;;;;;;4201785;28;20256;-74
2023/05/07 03:56:17;;;;;;;13.10;8.93;;;9.80;99.90;;;;;;4208914;28;20331;-74
2023/05/07 03:58:20;;;;;;;15.67;9.63;;;9.80;99.90;;;;;;4209036;28;20305;-74
2023/05/07 04:00:22;;;;;;;13.67;8.67;;;9.80;99.90;;;;;;4205601;28;20297;-75
2023/05/07 04:02:24;;;;;;;15.57;9.30;;;9.90;99.90;;;;;;4208165;28;20212;-74
2023/05/07 04:04:26;;;;;;;16.17;10.03;;;9.90;99.90;;;;;;4206892;28;20239;-74
2023/05/07 04:06:29;;;;;;;14.77;9.83;;;9.80;99.90;;;;;;4210156;28;21164;-74
2023/05/07 04:08:31;;;;;;;14.73;9.60;;;9.90;99.90;;;;;;4205874;28;20221;-75
2023/05/07 04:10:33;;;;;;;14.47;9.10;;;9.80;99.90;;;;;;4206250;28;20218;-75
2023/05/07 04:12:35;;;;;;;15.10;9.23;;;9.80;99.90;;;;;;4205244;28;20214;-75
2023/05/07 04:14:36;;;;;;;14.30;9.00;;;9.80;99.90;;;;;;4209877;28;20337;-73
2023/05/07 04:16:38;;;;;;;17.63;9.27;;;9.90;99.90;;;;;;4207186;28;20214;-74
2023/05/07 04:18:40;;;;;;;15.67;9.97;;;9.90;99.90;;;;;;4204662;28;20692;-75
2023/05/07 04:20:42;;;;;;;16.73;9.37;;;9.90;99.90;;;;;;4204381;28;20215;-75
2023/05/07 04:22:45;;;;;;;14.10;8.73;;;9.80;99.90;;;;;;4209990;28;20659;-74
2023/05/07 04:24:47;;;;;;;15.50;8.57;;;9.90;99.90;;;;;;4212294;28;21146;-74
2023/05/07 04:26:50;;;;;;;15.43;9.70;;;9.90;99.90;;;;;;4206336;28;20215;-74
2023/05/07 04:28:52;;;;;;;15.20;9.00;;;9.90;99.90;;;;;;4204627;28;20683;-75
2023/05/07 04:30:54;;;;;;;15.43;9.97;;;9.90;99.90;;;;;;4205942;28;20371;-74
2023/05/07 04:32:56;;;;;;;16.07;10.07;;;9.90;99.90;;;;;;4203134;28;20208;-75
2023/05/07 04:34:58;;;;;;;15.97;9.90;;;9.90;99.90;;;;;;4205903;28;20243;-75
2023/05/07 04:37:00;;;;;;;15.37;8.80;;;10.00;99.90;;;;;;4206122;28;20661;-75
2023/05/07 04:39:04;;;;;;;14.90;9.63;;;10.00;99.90;;;;;;4215649;28;20681;-74
2023/05/07 04:41:07;;;;;;;16.20;9.53;;;10.00;99.90;;;;;;4216136;28;20575;-75
2023/05/07 04:43:09;;;;;;;17.13;10.40;;;10.00;99.90;;;;;;4214288;28;20209;-74
2023/05/07 04:45:12;;;;;;;15.20;9.77;;;10.00;99.90;;;;;;4216859;28;20221;-75
2023/05/07 04:47:14;;;;;;;15.83;9.17;;;10.00;99.90;;;;;;4210616;28;20202;-75
2023/05/07 04:49:15;;;;;;;15.67;9.30;;;10.00;99.90;;;;;;4210041;28;20250;-75
2023/05/07 04:51:17;;;;;;;16.37;9.83;;;10.10;99.90;;;;;;4211610;28;20287;-75
2023/05/07 04:53:19;;;;;;;13.83;8.63;;;10.10;99.90;;;;;;4212166;28;20211;-75
2023/05/07 04:55:23;;;;;;;17.13;9.60;;;10.10;99.90;;;;;;4211171;28;20335;-74
2023/05/07 04:57:25;;;;;;;16.10;9.07;;;10.10;99.90;;;;;;4213972;28;20262;-74
2023/05/07 04:59:27;;;;;;;14.80;8.90;;;10.10;99.90;;;;;;4215253;28;20207;-74
2023/05/07 05:01:28;;;;;;;16.27;9.47;;;10.10;99.90;;;;;;4209805;28;20210;-75
2023/05/07 05:03:30;;;;;;;13.77;8.60;;;10.10;99.90;;;;;;4212273;28;20206;-75
2023/05/07 05:05:32;;;;;;;15.40;9.30;;;10.10;99.90;;;;;;4215098;28;20240;-76
2023/05/07 05:07:34;;;;;;;13.47;8.50;;;10.10;99.90;;;;;;4210016;28;20334;-75
2023/05/07 05:09:36;;;;;;;13.20;8.40;;;10.10;99.90;;;;;;4206067;28;20219;-75
2023/05/07 05:11:40;;;;;;;13.07;8.40;;;10.10;99.90;;;;;;4214447;28;20326;-75
2023/05/07 05:13:42;;;;;;;14.17;8.93;;;10.20;99.90;;;;;;4208102;28;20301;-75
2023/05/07 05:15:44;;;;;;;13.50;8.87;;;10.10;99.90;;;;;;4208568;28;20766;-74
2023/05/07 05:17:46;;;;;;;15.43;9.17;;;10.20;99.90;;;;;;4209842;28;20214;-75
2023/05/07 05:19:48;;;;;;;15.83;9.27;;;10.20;99.90;;;;;;4209432;28;20215;-74
2023/05/07 05:21:50;;;;;;;13.30;8.03;;;10.00;99.90;;;;;;4210417;28;20218;-75
2023/05/07 05:23:51;;;;;;;13.50;8.17;;;10.10;99.90;;;;;;4210497;28;20235;-75
2023/05/07 05:25:57;;;;;;;11.27;7.50;;;10.10;99.90;;;;;;4212538;28;20218;-73
2023/05/07 05:28:01;;;;;;;16.70;8.47;;;10.10;99.90;;;;;;4207281;28;20211;-75
2023/05/07 05:30:03;;;;;;;13.20;8.80;;;10.10;99.90;;;;;;4210786;28;20207;-75
2023/05/07 05:32:05;;;;;;;11.80;7.67;;;10.10;99.90;;;;;;4211630;28;20297;-74
2023/05/07 05:34:07;;;;;;;12.77;8.07;;;10.10;99.90;;;;;;4212112;28;20793;-74
2023/05/07 05:36:11;;;;;;;12.20;7.87;;;10.10;99.90;;;;;;4210125;28;20314;-75
2023/05/07 05:38:14;;;;;;;11.57;8.00;;;10.10;99.90;;;;;;4208211;28;20569;-75
2023/05/07 05:40:15;;;;;;;12.50;7.93;;;10.10;99.90;;;;;;4206822;28;20709;-75
2023/05/07 05:42:17;;;;;;;11.87;7.70;;;10.10;99.90;;;;;;4210486;28;20207;-75
2023/05/07 05:44:21;;;;;;;10.70;7.13;;;10.10;99.90;;;;;;4208725;28;20731;-76
2023/05/07 05:46:22;;;;;;;11.63;7.47;;;10.10;99.90;;;;;;4210617;28;20213;-76
2023/05/07 05:48:24;;;;;;;11.70;7.60;;;10.10;99.90;;;;;;4206166;28;20226;-75
2023/05/07 05:50:26;;;;;;;13.00;8.10;;;10.20;99.90;;;;;;4206260;28;20219;-75
2023/05/07 05:52:28;;;;;;;11.47;7.17;;;10.20;99.90;;;;;;4210270;28;20592;-75
2023/05/07 05:54:30;;;;;;;12.00;7.23;;;10.20;99.90;;;;;;4205569;28;20231;-75
2023/05/07 05:56:32;;;;;;;12.13;6.93;;;10.20;99.90;;;;;;4210409;28;20271;-75
2023/05/07 05:58:34;;;;;;;12.43;7.10;;;10.30;99.90;;;;;;4204962;28;20216;-74
2023/05/07 06:00:37;;;;;;;9.93;6.77;;;10.20;99.90;;;;;;4208995;28;20227;-75
2023/05/07 06:02:39;;;;;;;9.77;6.53;;;10.20;99.90;;;;;;4210377;28;20243;-75
2023/05/07 06:04:42;;;;;;;7.93;5.67;;;10.30;99.90;;;;;;4209226;28;20235;-75
2023/05/07 06:06:44;;;;;;;10.33;6.30;;;10.30;99.90;;;;;;4209033;28;20211;-75
2023/05/07 06:08:46;;;;;;;8.60;6.03;;;10.30;99.90;;;;;;4210018;28;20216;-75
2023/05/07 06:10:47;;;;;;;9.37;6.60;;;10.30;99.90;;;;;;4210405;28;20244;-75
2023/05/07 06:12:49;;;;;;;10.27;6.57;;;10.30;99.90;;;;;;4212650;28;20204;-75
2023/05/07 06:14:52;;;;;;;11.33;6.93;;;10.40;99.90;;;;;;4212551;28;20242;-75
2023/05/07 06:16:55;;;;;;;10.97;6.40;;;10.40;99.90;;;;;;4205055;28;20232;-75
2023/05/07 06:18:57;;;;;;;10.40;6.40;;;10.40;99.90;;;;;;4203704;28;20200;-76
2023/05/07 06:20:58;;;;;;;10.70;6.90;;;10.40;99.90;;;;;;4208453;28;20213;-74
2023/05/07 06:23:00;;;;;;;14.07;7.47;;;10.40;99.90;;;;;;4208922;28;20706;-75
2023/05/07 06:25:02;;;;;;;12.40;7.13;;;10.40;99.90;;;;;;4213076;28;20234;-75
2023/05/07 06:27:04;;;;;;;10.63;6.60;;;10.40;99.90;;;;;;4207390;28;20600;-75
2023/05/07 06:29:07;;;;;;;10.30;6.97;;;10.40;99.90;;;;;;4210233;28;20219;-75
2023/05/07 06:31:15;;;;;;;10.60;7.30;;;10.40;99.90;;;;;;4207802;28;20216;-75
2023/05/07 06:33:19;;;;;;;12.57;7.43;;;10.40;99.90;;;;;;4210028;28;20319;-75
2023/05/07 06:35:21;;;;;;;11.87;7.23;;;10.50;99.90;;;;;;4207224;28;20709;-76
2023/05/07 06:37:23;;;;;;;11.00;7.20;;;10.50;99.90;;;;;;4208751;28;20611;-74
2023/05/07 06:39:25;;;;;;;11.53;7.27;;;10.50;99.90;;;;;;4212383;28;20215;-75
2023/05/07 06:41:27;;;;;;;11.27;7.43;;;10.60;99.90;;;;;;4202385;28;20203;-75
2023/05/07 06:43:29;;;;;;;12.80;8.13;;;10.60;99.90;;;;;;4208138;28;20246;-74
2023/05/07 06:45:31;;;;;;;12.87;8.20;;;10.60;99.90;;;;;;4207884;28;20207;-75
2023/05/07 06:47:32;;;;;;;12.60;7.70;;;10.70;99.90;;;;;;4207435;28;20230;-75
2023/05/07 06:49:36;;;;;;;13.47;8.27;;;10.70;99.90;;;;;;4208768;28;20349;-74
2023/05/07 06:51:38;;;;;;;12.77;8.40;;;10.70;99.90;;;;;;4208347;28;20247;-74
2023/05/07 06:53:40;;;;;;;13.80;7.70;;;10.70;99.90;;;;;;4208368;28;20295;-74
2023/05/07 06:55:42;;;;;;;12.80;8.20;;;10.80;99.90;;;;;;4208001;28;20211;-75
2023/05/07 06:57:44;;;;;;;11.77;7.33;;;10.80;99.90;;;;;;4207262;28;20209;-76
2023/05/07 06:59:46;;;;;;;12.50;7.53;;;10.80;99.90;;;;;;4210558;28;20208;-75
2023/05/07 07:01:48;;;;;;;10.37;7.20;;;10.80;99.90;;;;;;4209704;28;20224;-74
2023/05/07 07:03:51;;;;;;;11.13;6.73;;;10.80;99.90;;;;;;4208242;28;20586;-75
2023/05/07 07:05:54;;;;;;;10.50;6.80;;;10.80;99.90;;;;;;4209379;28;20250;-75
2023/05/07 07:07:56;;;;;;;10.17;7.13;;;10.80;99.90;;;;;;4203232;28;20252;-75
2023/05/07 07:09:58;;;;;;;11.80;7.43;;;10.90;99.90;;;;;;4205530;28;20320;-75
2023/05/07 07:12:00;;;;;;;10.17;6.73;;;10.90;99.90;;;;;;4208865;28;20328;-75
2023/05/07 07:14:02;;;;;;;11.20;7.40;;;10.90;99.90;;;;;;4206302;28;20228;-75
2023/05/07 07:16:04;;;;;;;11.00;6.83;;;10.90;99.90;;;;;;4205653;28;20271;-75
2023/05/07 07:18:06;;;;;;;10.30;6.33;;;11.00;99.90;;;;;;4207328;28;20220;-75
2023/05/07 07:20:09;;;;;;;11.57;7.07;;;11.00;99.90;;;;;;4211797;28;20919;-76
2023/05/07 07:22:12;;;;;;;10.60;7.07;;;11.00;99.90;;;;;;4210342;28;20219;-76
2023/05/07 07:24:18;;;;;;;8.43;6.23;;;11.10;99.90;;;;;;4205190;28;20718;-76
2023/05/07 07:26:20;;;;;;;11.17;7.30;;;11.10;99.90;;;;;;4204075;28;20214;-76
2023/05/07 07:28:22;;;;;;;9.57;6.07;;;11.10;99.90;;;;;;4209174;28;20220;-75
2023/05/07 07:30:25;;;;;;;9.70;5.57;;;11.20;99.90;;;;;;4208009;28;20307;-76
2023/05/07 07:32:27;;;;;;;8.23;5.57;;;11.30;99.90;;;;;;4206850;28;20619;-75
2023/05/07 07:34:30;;;;;;;8.40;5.77;;;11.30;99.90;;;;;;4210249;28;20240;-75
2023/05/07 07:36:31;;;;;;;8.37;5.60;;;11.40;99.90;;;;;;4207767;28;20250;-75
2023/05/07 07:38:35;;;;;;;8.60;5.80;;;11.40;99.90;;;;;;4208498;28;20920;-75
2023/05/07 07:40:37;;;;;;;7.90;5.40;;;11.50;99.90;;;;;;4209697;28;20204;-76
2023/05/07 07:42:39;;;;;;;9.87;5.80;;;11.60;99.90;;;;;;4208339;28;20217;-76
2023/05/07 07:44:40;;;;;;;9.43;5.60;;;11.60;99.90;;;;;;4204299;28;20251;-76
2023/05/07 07:46:42;;;;;;;8.63;5.73;;;11.70;99.90;;;;;;4205271;28;20200;-76
2023/05/07 07:48:44;;;;;;;8.23;5.90;;;11.70;99.90;;;;;;4209122;28;20212;-75
2023/05/07 07:50:49;;;;;;;8.93;5.10;;;11.70;99.90;;;;;;4206871;28;20701;-75
2023/05/07 07:52:51;;;;;;;8.77;5.07;;;11.80;99.90;;;;;;4205674;28;20213;-75
2023/05/07 07:54:54;;;;;;;7.93;5.20;;;11.80;99.90;;;;;;4205684;28;20244;-76
2023/05/07 07:56:56;;;;;;;7.83;5.47;;;11.90;99.90;;;;;;4204680;28;20217;-76
2023/05/07 07:58:58;;;;;;;6.57;5.17;;;11.90;99.90;;;;;;4208272;28;20251;-76
2023/05/07 08:00:59;;;;;;;7.20;5.33;;;11.90;99.90;;;;;;4207373;28;20295;-76
2023/05/07 08:03:02;;;;;;;9.13;5.57;;;11.90;99.90;;;;;;4209990;28;20312;-76
2023/05/07 08:05:05;;;;;;;7.20;4.73;;;11.90;99.90;;;;;;4205651;28;20228;-75
2023/05/07 08:07:07;;;;;;;7.50;4.90;;;11.90;99.90;;;;;;4206626;28;20229;-76
2023/05/07 08:09:09;;;;;;;6.63;4.90;;;11.90;99.90;;;;;;4208897;28;20227;-75
2023/05/07 08:11:12;;;;;;;7.67;5.47;;;11.90;99.90;;;;;;4209021;28;20306;-74
2023/05/07 08:13:14;;;;;;;6.83;4.50;;;11.90;99.90;;;;;;4206735;28;20214;-76
2023/05/07 08:15:16;;;;;;;5.83;4.10;;;11.90;99.90;;;;;;4206286;28;20228;-76
2023/05/07 08:17:18;;;;;;;5.50;4.30;;;11.90;99.90;;;;;;4204760;28;20321;-76
2023/05/07 08:19:21;;;;;;;6.30;3.90;;;11.90;99.90;;;;;;4203543;28;20220;-75
2023/05/07 08:21:23;;;;;;;4.83;3.70;;;11.90;99.90;;;;;;4207319;28;20266;-75
2023/05/07 08:23:25;;;;;;;6.40;4.50;;;11.90;99.90;;;;;;4203740;28;20308;-76
2023/05/07 08:25:27;;;;;;;5.77;3.97;;;11.90;99.90;;;;;;4206132;28;20614;-77
2023/05/07 08:27:30;;;;;;;6.10;4.13;;;11.90;99.90;;;;;;4211183;28;20392;-76
2023/05/07 08:29:32;;;;;;;5.93;4.40;;;12.00;99.90;;;;;;4207387;28;20200;-75
2023/05/07 08:31:34;;;;;;;5.97;4.20;;;12.00;99.90;;;;;;4208142;28;20220;-76
2023/05/07 08:33:36;;;;;;;5.00;3.60;;;12.00;99.90;;;;;;4209525;28;20223;-76
2023/05/07 08:35:37;;;;;;;5.07;3.83;;;12.10;99.90;;;;;;4205413;28;20215;-76
2023/05/07 08:37:44;;;;;;;5.00;3.80;;;12.10;99.90;;;;;;4211424;28;20323;-73
2023/05/07 08:39:46;;;;;;;5.10;3.30;;;12.10;99.90;;;;;;4209523;28;20209;-75
2023/05/07 08:41:51;;;;;;;4.43;3.50;;;12.10;99.90;;;;;;4209767;28;20213;-74
2023/05/07 08:43:59;;;;;;;5.13;4.10;;;12.10;99.90;;;;;;4205117;28;20228;-75
2023/05/07 08:46:02;;;;;;;6.63;3.90;;;12.20;99.90;;;;;;4204875;28;20208;-75
2023/05/07 08:48:10;;;;;;;5.47;3.80;;;12.10;99.90;;;;;;4210726;28;20212;-74
2023/05/07 08:50:12;;;;;;;4.70;3.57;;;12.10;99.90;;;;;;4205604;28;20224;-74
2023/05/07 08:52:14;;;;;;;5.40;4.00;;;12.10;99.90;;;;;;4208353;28;20670;-75
2023/05/07 08:54:17;;;;;;;5.00;3.60;;;12.10;99.90;;;;;;4205823;28;20660;-73
2023/05/07 08:56:20;;;;;;;5.30;4.03;;;12.10;99.90;;;;;;4206277;28;20219;-75
2023/05/07 08:58:22;;;;;;;6.27;4.17;;;12.10;99.90;;;;;;4204328;28;20263;-74
2023/05/07 09:00:25;;;;;;;4.87;3.97;;;12.10;99.90;;;;;;4208732;28;20205;-75
2023/05/07 09:02:27;;;;;;;4.90;3.60;;;12.20;99.90;;;;;;4203341;28;20243;-75
2023/05/07 09:04:31;;;;;;;6.03;4.40;;;12.20;99.90;;;;;;4206676;28;20285;-75
2023/05/07 09:06:33;;;;;;;5.03;4.20;;;12.20;99.90;;;;;;4202021;28;20214;-74
2023/05/07 09:08:36;;;;;;;6.67;4.50;;;12.20;99.90;;;;;;4209854;28;20705;-75
2023/05/07 09:10:38;;;;;;;5.80;4.30;;;12.20;99.90;;;;;;4208259;28;20587;-75
2023/05/07 09:12:40;;;;;;;7.80;4.67;;;12.20;99.90;;;;;;4205352;28;20217;-75
2023/05/07 09:14:42;;;;;;;6.80;4.63;;;12.20;99.90;;;;;;4206956;28;20272;-75
2023/05/07 09:16:47;;;;;;;5.60;4.40;;;12.20;99.90;;;;;;4208088;28;20212;-75
2023/05/07 09:18:53;;;;;;;5.43;4.43;;;12.30;99.90;;;;;;4210053;28;20459;-74
2023/05/07 09:20:56;;;;;;;6.10;4.30;;;12.30;99.90;;;;;;4204702;28;20299;-74
2023/05/07 09:22:58;;;;;;;6.07;4.57;;;12.30;99.90;;;;;;4205981;28;20210;-75
2023/05/07 09:24:59;;;;;;;5.90;4.40;;;12.30;99.90;;;;;;4204966;28;20235;-75
2023/05/07 09:27:02;;;;;;;6.80;4.50;;;12.30;99.90;;;;;;4211091;28;20240;-75
2023/05/07 09:29:04;;;;;;;6.63;4.50;;;12.30;99.90;;;;;;4209588;28;20208;-75
2023/05/07 09:31:06;;;;;;;6.27;4.20;;;12.30;99.90;;;;;;4213622;28;20209;-74
2023/05/07 09:33:09;;;;;;;6.57;4.43;;;12.40;99.90;;;;;;4210628;28;20216;-75
2023/05/07 09:35:16;;;;;;;5.93;4.43;;;12.30;99.90;;;;;;4212497;28;20235;-73
2023/05/07 09:37:18;;;;;;;6.60;4.07;;;12.40;99.90;;;;;;4209877;28;20221;-75
2023/05/07 09:39:20;;;;;;;6.03;4.17;;;12.40;99.90;;;;;;4209497;28;20677;-75
2023/05/07 09:41:22;;;;;;;6.03;4.60;;;12.40;99.90;;;;;;4207073;28;20205;-75
2023/05/07 09:43:24;;;;;;;6.93;4.47;;;12.40;99.90;;;;;;4210280;28;20212;-75
2023/05/07 09:45:27;;;;;;;7.67;5.00;;;12.50;99.90;;;;;;4210725;28;20221;-75
2023/05/07 09:47:33;;;;;;;5.77;4.50;;;12.50;99.90;;;;;;4210499;28;20293;-75
2023/05/07 09:49:42;;;;;;;5.83;4.53;;;12.50;99.90;;;;;;4209828;28;20221;-76
2023/05/07 09:51:48;;;;;;;6.37;4.70;;;12.50;99.90;;;;;;4207691;28;20311;-75
2023/05/07 09:53:53;;;;;;;6.33;4.50;;;12.50;99.90;;;;;;4208067;28;20701;-74
2023/05/07 09:55:56;;;;;;;7.17;4.80;;;12.50;99.90;;;;;;4208323;28;20303;-74
2023/05/07 09:57:59;;;;;;;9.03;5.73;;;12.50;99.90;;;;;;4208032;28;20225;-74
2023/05/07 10:00:04;;;;;;;7.83;4.77;;;12.50;99.90;;;;;;4210361;28;20309;-75
2023/05/07 10:02:06;;;;;;;6.90;4.80;;;12.50;99.90;;;;;;4209193;28;21019;-76
2023/05/07 10:04:08;;;;;;;7.90;4.70;;;12.50;99.90;;;;;;4208902;28;20292;-76
2023/05/07 10:06:12;;;;;;;7.63;5.10;;;12.50;99.90;;;;;;4206307;28;20457;-76
2023/05/07 10:08:16;;;;;;;5.70;4.33;;;12.50;99.90;;;;;;4209735;28;20229;-75
2023/05/07 10:10:19;;;;;;;5.33;4.00;;;12.50;99.90;;;;;;4210714;28;20292;-75
2023/05/07 10:12:22;;;;;;;6.20;4.60;;;12.50;99.90;;;;;;4205802;28;20295;-76
2023/05/07 10:14:29;;;;;;;8.00;4.47;;;12.60;99.90;;;;;;4205601;28;20325;-75
2023/05/07 10:16:36;;;;;;;6.17;4.07;;;12.60;99.90;;;;;;4209839;28;20221;-75
2023/05/07 10:18:39;;;;;;;5.43;4.27;;;12.60;99.90;;;;;;4208792;28;20765;-75
2023/05/07 10:20:44;;;;;;;6.23;4.23;;;12.70;99.90;;;;;;4206397;28;20667;-75
2023/05/07 10:22:49;;;;;;;5.63;4.10;;;12.70;99.90;;;;;;4210106;28;20213;-75
2023/05/07 10:24:55;;;;;;;6.00;3.93;;;12.80;99.90;;;;;;4207754;28;20243;-74
2023/05/07 10:27:00;;;;;;;5.03;3.30;;;12.80;99.90;;;;;;4212917;28;20212;-74
2023/05/07 10:29:08;;;;;;;5.17;3.90;;;12.80;99.90;;;;;;4206103;28;20216;-74
2023/05/07 10:31:31;;;;;;;4.53;3.27;;;12.90;99.90;;;;;;4207585;28;20303;-74
2023/05/07 10:33:34;;;;;;;4.90;3.60;;;13.00;99.90;;;;;;4204384;28;20218;-74
2023/05/07 10:35:41;;;;;;;5.00;3.50;;;13.00;99.90;;;;;;4207049;28;20213;-74